EHMA

Awg-1 Sea

Awg-1 Sea, The Netherlands
METAR EHMA 160355Z AUTO 13029KT //// // BKN004 BKN006 FEW015CB OVC019 M02/M02 Q1009 RE// W///H///
Observed Flight Rules
Dec-16 @ 03:55 UTC (40 minutes ago)
Wind Clouds
130° at 29 knots
  • Broken at 400' AGL
  • Broken at 600' AGL
  • Few at 1,500' AGL
  • Overcast at 1,900' AGL
Temperatures Readings
Current -2°C / 28°F
Dewpoint -2°C / 28°F
Humidity 100%
Altimeter 29.79" Hg
Pressure 1009 hPa
Elevation 50
METAR EHMA 160355Z AUTO 13029KT //// // BKN004 BKN006 FEW015CB OVC019 M02/M02 Q1009 RE// W///H///
Observed Flight Rules
Dec-16 @ 03:55 UTC
(40 minutes ago)
Wind
130° at 29 knots
Clouds
  • Broken at 400' AGL
  • Broken at 600' AGL
  • Few at 1,500' AGL
  • Overcast at 1,900' AGL
Temperature Dewpoint
-2°C / 28°F -2°C / 28°F
Humidity Altimeter Pressure
100% 29.79" Hg 1009 hPa